sensor_id;sensor_type;location;lat;lon;timestamp;pressure;altitude;pressure_sealevel;temperature;humidity
64602;BME280;51013;42.630;23.192;2023-02-28T00:01:08;92732.75;;;6.20;100.00
64602;BME280;51013;42.630;23.192;2023-02-28T00:03:35;92712.41;;;6.08;100.00
64602;BME280;51013;42.630;23.192;2023-02-28T00:06:05;92732.47;;;6.30;100.00
64602;BME280;51013;42.630;23.192;2023-02-28T00:08:36;92732.38;;;6.35;100.00
64602;BME280;51013;42.630;23.192;2023-02-28T00:11:06;92731.44;;;6.31;100.00
64602;BME280;51013;42.630;23.192;2023-02-28T00:13:37;92734.63;;;6.28;100.00
64602;BME280;51013;42.630;23.192;2023-02-28T00:16:07;92740.97;;;6.36;100.00
64602;BME280;51013;42.630;23.192;2023-02-28T00:18:35;92743.56;;;6.36;100.00
64602;BME280;51013;42.630;23.192;2023-02-28T00:21:02;92737.16;;;6.42;100.00
64602;BME280;51013;42.630;23.192;2023-02-28T00:23:29;92744.72;;;6.52;100.00
64602;BME280;51013;42.630;23.192;2023-02-28T00:25:57;92727.78;;;6.41;100.00
64602;BME280;51013;42.630;23.192;2023-02-28T00:28:24;92744.69;;;6.44;100.00
64602;BME280;51013;42.630;23.192;2023-02-28T00:30:51;92729.75;;;6.35;100.00
64602;BME280;51013;42.630;23.192;2023-02-28T00:33:18;92750.69;;;6.53;100.00
64602;BME280;51013;42.630;23.192;2023-02-28T00:35:45;92744.13;;;6.55;100.00
64602;BME280;51013;42.630;23.192;2023-02-28T00:38:13;92737.28;;;6.37;100.00
64602;BME280;51013;42.630;23.192;2023-02-28T00:40:40;92733.84;;;6.28;100.00
64602;BME280;51013;42.630;23.192;2023-02-28T00:43:11;92739.03;;;6.19;100.00
64602;BME280;51013;42.630;23.192;2023-02-28T00:45:38;92748.06;;;6.13;100.00
64602;BME280;51013;42.630;23.192;2023-02-28T00:48:05;92733.94;;;6.14;100.00
64602;BME280;51013;42.630;23.192;2023-02-28T00:50:32;92737.81;;;6.16;100.00
64602;BME280;51013;42.630;23.192;2023-02-28T00:52:59;92736.44;;;6.19;100.00
64602;BME280;51013;42.630;23.192;2023-02-28T00:55:26;92739.09;;;6.05;100.00
64602;BME280;51013;42.630;23.192;2023-02-28T00:57:52;92724.97;;;6.06;100.00
64602;BME280;51013;42.630;23.192;2023-02-28T01:00:21;92730.34;;;6.01;100.00
64602;BME280;51013;42.630;23.192;2023-02-28T01:02:47;92727.56;;;5.97;100.00
64602;BME280;51013;42.630;23.192;2023-02-28T01:05:14;92723.41;;;5.96;100.00
64602;BME280;51013;42.630;23.192;2023-02-28T01:07:41;92724.22;;;6.06;100.00
64602;BME280;51013;42.630;23.192;2023-02-28T01:10:09;92723.22;;;5.93;100.00
64602;BME280;51013;42.630;23.192;2023-02-28T01:12:38;92718.50;;;5.95;100.00
64602;BME280;51013;42.630;23.192;2023-02-28T01:15:06;92718.97;;;5.97;100.00
64602;BME280;51013;42.630;23.192;2023-02-28T01:17:34;92717.94;;;5.84;100.00
64602;BME280;51013;42.630;23.192;2023-02-28T01:20:00;92729.91;;;5.85;100.00
64602;BME280;51013;42.630;23.192;2023-02-28T01:22:28;92725.09;;;5.78;100.00
64602;BME280;51013;42.630;23.192;2023-02-28T01:24:55;92729.00;;;5.90;100.00
64602;BME280;51013;42.630;23.192;2023-02-28T01:27:21;92727.06;;;5.95;100.00
64602;BME280;51013;42.630;23.192;2023-02-28T01:29:48;92723.22;;;5.93;100.00
64602;BME280;51013;42.630;23.192;2023-02-28T01:32:16;92718.50;;;5.95;100.00
64602;BME280;51013;42.630;23.192;2023-02-28T01:34:44;92705.50;;;5.81;100.00
64602;BME280;51013;42.630;23.192;2023-02-28T01:37:14;92727.34;;;5.94;100.00
64602;BME280;51013;42.630;23.192;2023-02-28T01:39:43;92724.56;;;5.90;100.00
64602;BME280;51013;42.630;23.192;2023-02-28T01:42:10;92726.03;;;5.96;100.00
64602;BME280;51013;42.630;23.192;2023-02-28T01:45:00;92716.81;;;5.99;100.00
64602;BME280;51013;42.630;23.192;2023-02-28T01:47:31;92731.00;;;6.07;100.00
64602;BME280;51013;42.630;23.192;2023-02-28T01:50:01;92734.38;;;6.07;100.00
64602;BME280;51013;42.630;23.192;2023-02-28T01:52:28;92730.53;;;6.05;100.00
64602;BME280;51013;42.630;23.192;2023-02-28T01:54:59;92728.78;;;6.00;100.00
64602;BME280;51013;42.630;23.192;2023-02-28T01:57:28;92732.47;;;5.99;100.00
64602;BME280;51013;42.630;23.192;2023-02-28T02:00:05;92735.00;;;5.90;100.00
64602;BME280;51013;42.630;23.192;2023-02-28T02:02:35;92726.41;;;5.90;100.00
64602;BME280;51013;42.630;23.192;2023-02-28T02:05:05;92734.94;;;5.81;100.00
64602;BME280;51013;42.630;23.192;2023-02-28T02:07:35;92723.25;;;5.79;100.00
64602;BME280;51013;42.630;23.192;2023-02-28T02:10:05;92732.78;;;5.83;100.00
64602;BME280;51013;42.630;23.192;2023-02-28T02:12:46;92732.22;;;5.87;100.00
64602;BME280;51013;42.630;23.192;2023-02-28T02:15:20;92729.19;;;5.93;100.00
64602;BME280;51013;42.630;23.192;2023-02-28T02:17:51;92733.94;;;5.91;100.00
64602;BME280;51013;42.630;23.192;2023-02-28T02:20:36;92734.63;;;5.97;100.00
64602;BME280;51013;42.630;23.192;2023-02-28T02:23:25;92725.59;;;5.80;100.00
64602;BME280;51013;42.630;23.192;2023-02-28T02:25:59;92725.44;;;5.86;100.00
64602;BME280;51013;42.630;23.192;2023-02-28T02:28:54;92648.59;;;5.29;100.00
64602;BME280;51013;42.630;23.192;2023-02-28T02:34:51;92735.47;;;5.92;100.00
64602;BME280;51013;42.630;23.192;2023-02-28T02:37:27;92733.25;;;5.99;100.00
64602;BME280;51013;42.630;23.192;2023-02-28T02:40:00;92731.72;;;5.98;100.00
64602;BME280;51013;42.630;23.192;2023-02-28T02:42:34;92747.44;;;6.16;100.00
64602;BME280;51013;42.630;23.192;2023-02-28T02:45:06;92752.19;;;6.14;100.00
64602;BME280;51013;42.630;23.192;2023-02-28T02:47:36;92729.91;;;6.08;100.00
64602;BME280;51013;42.630;23.192;2023-02-28T02:50:08;92744.91;;;6.25;100.00
64602;BME280;51013;42.630;23.192;2023-02-28T02:52:45;92732.88;;;6.15;100.00
64602;BME280;51013;42.630;23.192;2023-02-28T02:55:16;92748.28;;;6.25;100.00
64602;BME280;51013;42.630;23.192;2023-02-28T02:57:47;92752.31;;;6.31;100.00
64602;BME280;51013;42.630;23.192;2023-02-28T03:00:19;92736.00;;;6.26;100.00
64602;BME280;51013;42.630;23.192;2023-02-28T03:02:49;92758.56;;;6.30;100.00
64602;BME280;51013;42.630;23.192;2023-02-28T03:05:23;92755.34;;;6.25;100.00
64602;BME280;51013;42.630;23.192;2023-02-28T03:07:52;92760.19;;;6.17;100.00
64602;BME280;51013;42.630;23.192;2023-02-28T03:10:32;92756.94;;;6.12;100.00
64602;BME280;51013;42.630;23.192;2023-02-28T03:16:13;92752.16;;;6.05;100.00
64602;BME280;51013;42.630;23.192;2023-02-28T03:18:50;92756.75;;;6.08;100.00
64602;BME280;51013;42.630;23.192;2023-02-28T03:21:23;92768.84;;;6.04;100.00
64602;BME280;51013;42.630;23.192;2023-02-28T03:23:56;92768.09;;;6.04;100.00
64602;BME280;51013;42.630;23.192;2023-02-28T03:26:29;92772.25;;;6.05;100.00
64602;BME280;51013;42.630;23.192;2023-02-28T03:29:02;92775.00;;;6.08;100.00
64602;BME280;51013;42.630;23.192;2023-02-28T03:31:32;92769.50;;;6.10;100.00
64602;BME280;51013;42.630;23.192;2023-02-28T03:34:03;92757.09;;;5.93;100.00
64602;BME280;51013;42.630;23.192;2023-02-28T03:36:36;92780.19;;;5.86;100.00
64602;BME280;51013;42.630;23.192;2023-02-28T03:39:11;92777.97;;;5.93;100.00
64602;BME280;51013;42.630;23.192;2023-02-28T03:41:43;92777.97;;;5.93;100.00
64602;BME280;51013;42.630;23.192;2023-02-28T03:44:16;92784.84;;;5.89;100.00
64602;BME280;51013;42.630;23.192;2023-02-28T03:46:46;92786.97;;;5.87;100.00
64602;BME280;51013;42.630;23.192;2023-02-28T03:49:17;92784.69;;;5.71;100.00
64602;BME280;51013;42.630;23.192;2023-02-28T03:51:49;92788.84;;;5.72;100.00
64602;BME280;51013;42.630;23.192;2023-02-28T03:54:21;92786.63;;;5.66;100.00
64602;BME280;51013;42.630;23.192;2023-02-28T03:56:51;92791.56;;;5.67;100.00
64602;BME280;51013;42.630;23.192;2023-02-28T03:59:22;92784.34;;;5.64;100.00
64602;BME280;51013;42.630;23.192;2023-02-28T04:01:52;92783.19;;;5.56;100.00
64602;BME280;51013;42.630;23.192;2023-02-28T04:04:20;92784.63;;;5.62;100.00
64602;BME280;51013;42.630;23.192;2023-02-28T04:06:52;92787.25;;;5.62;100.00
64602;BME280;51013;42.630;23.192;2023-02-28T04:09:20;92789.31;;;5.52;100.00
64602;BME280;51013;42.630;23.192;2023-02-28T04:11:51;92786.91;;;5.41;100.00
64602;BME280;51013;42.630;23.192;2023-02-28T04:14:23;92768.41;;;5.29;100.00
64602;BME280;51013;42.630;23.192;2023-02-28T04:16:50;92784.03;;;5.29;100.00
64602;BME280;51013;42.630;23.192;2023-02-28T04:19:18;92762.84;;;5.08;100.00
64602;BME280;51013;42.630;23.192;2023-02-28T04:21:47;92784.91;;;5.11;100.00
64602;BME280;51013;42.630;23.192;2023-02-28T04:24:19;92779.31;;;5.17;100.00
64602;BME280;51013;42.630;23.192;2023-02-28T04:26:49;92781.75;;;5.00;100.00
64602;BME280;51013;42.630;23.192;2023-02-28T04:29:23;92776.06;;;4.98;100.00
64602;BME280;51013;42.630;23.192;2023-02-28T04:31:51;92751.56;;;4.71;100.00
64602;BME280;51013;42.630;23.192;2023-02-28T04:34:19;92777.41;;;4.95;100.00
64602;BME280;51013;42.630;23.192;2023-02-28T04:36:49;92778.56;;;4.89;100.00
64602;BME280;51013;42.630;23.192;2023-02-28T04:39:22;92774.41;;;4.74;100.00
64602;BME280;51013;42.630;23.192;2023-02-28T04:41:51;92769.03;;;4.71;100.00
64602;BME280;51013;42.630;23.192;2023-02-28T04:44:18;92781.44;;;4.74;100.00
64602;BME280;51013;42.630;23.192;2023-02-28T04:46:48;92796.09;;;4.70;100.00
64602;BME280;51013;42.630;23.192;2023-02-28T04:49:16;92795.06;;;4.71;100.00
64602;BME280;51013;42.630;23.192;2023-02-28T04:51:43;92805.16;;;4.72;100.00
64602;BME280;51013;42.630;23.192;2023-02-28T04:54:09;92807.09;;;4.80;100.00
64602;BME280;51013;42.630;23.192;2023-02-28T04:56:37;92789.84;;;4.71;100.00
64602;BME280;51013;42.630;23.192;2023-02-28T04:59:04;92809.13;;;4.84;100.00
64602;BME280;51013;42.630;23.192;2023-02-28T05:01:32;92813.78;;;4.87;100.00
64602;BME280;51013;42.630;23.192;2023-02-28T05:04:01;92813.94;;;4.90;100.00
64602;BME280;51013;42.630;23.192;2023-02-28T05:06:30;92810.19;;;4.96;100.00
64602;BME280;51013;42.630;23.192;2023-02-28T05:08:57;92814.63;;;4.96;100.00
64602;BME280;51013;42.630;23.192;2023-02-28T05:11:26;92810.09;;;5.01;100.00
64602;BME280;51013;42.630;23.192;2023-02-28T05:13:55;92808.06;;;4.98;100.00
64602;BME280;51013;42.630;23.192;2023-02-28T05:16:22;92817.81;;;4.93;100.00
64602;BME280;51013;42.630;23.192;2023-02-28T05:18:49;92813.09;;;4.95;100.00
64602;BME280;51013;42.630;23.192;2023-02-28T05:21:26;92823.22;;;5.10;100.00
64602;BME280;51013;42.630;23.192;2023-02-28T05:23:53;92824.16;;;5.00;100.00
64602;BME280;51013;42.630;23.192;2023-02-28T05:26:20;92821.88;;;4.99;100.00
64602;BME280;51013;42.630;23.192;2023-02-28T05:28:50;92832.28;;;4.99;100.00
64602;BME280;51013;42.630;23.192;2023-02-28T05:31:21;92814.16;;;4.94;100.00
64602;BME280;51013;42.630;23.192;2023-02-28T05:33:49;92844.91;;;5.06;100.00
64602;BME280;51013;42.630;23.192;2023-02-28T05:36:18;92841.91;;;4.98;100.00
64602;BME280;51013;42.630;23.192;2023-02-28T05:38:46;92841.06;;;5.03;100.00
64602;BME280;51013;42.630;23.192;2023-02-28T05:41:13;92843.28;;;4.96;100.00
64602;BME280;51013;42.630;23.192;2023-02-28T05:43:40;92850.41;;;5.04;100.00
64602;BME280;51013;42.630;23.192;2023-02-28T05:46:09;92848.22;;;5.11;100.00
64602;BME280;51013;42.630;23.192;2023-02-28T05:48:38;92852.16;;;5.22;100.00
64602;BME280;51013;42.630;23.192;2023-02-28T05:51:06;92846.66;;;5.10;100.00
64602;BME280;51013;42.630;23.192;2023-02-28T05:53:33;92851.84;;;5.10;100.00
64602;BME280;51013;42.630;23.192;2023-02-28T05:56:00;92852.06;;;5.14;100.00
64602;BME280;51013;42.630;23.192;2023-02-28T05:58:28;92859.00;;;5.18;100.00
64602;BME280;51013;42.630;23.192;2023-02-28T06:00:56;92860.84;;;5.18;100.00
64602;BME280;51013;42.630;23.192;2023-02-28T06:03:26;92862.38;;;5.19;100.00
64602;BME280;51013;42.630;23.192;2023-02-28T06:05:57;92852.44;;;5.21;100.00
64602;BME280;51013;42.630;23.192;2023-02-28T06:08:25;92857.28;;;5.28;100.00
64602;BME280;51013;42.630;23.192;2023-02-28T06:10:51;92860.84;;;5.32;100.00
64602;BME280;51013;42.630;23.192;2023-02-28T06:13:20;92860.34;;;5.30;100.00
64602;BME280;51013;42.630;23.192;2023-02-28T06:15:46;92862.19;;;5.29;100.00
64602;BME280;51013;42.630;23.192;2023-02-28T06:18:13;92864.78;;;5.43;100.00
64602;BME280;51013;42.630;23.192;2023-02-28T06:20:40;92874.44;;;5.42;100.00
64602;BME280;51013;42.630;23.192;2023-02-28T06:23:09;92867.56;;;5.47;100.00
64602;BME280;51013;42.630;23.192;2023-02-28T06:25:35;92873.47;;;5.52;100.00
64602;BME280;51013;42.630;23.192;2023-02-28T06:28:02;92867.09;;;5.58;100.00
64602;BME280;51013;42.630;23.192;2023-02-28T06:30:29;92866.41;;;5.53;100.00
64602;BME280;51013;42.630;23.192;2023-02-28T06:32:56;92859.66;;;5.52;100.00
64602;BME280;51013;42.630;23.192;2023-02-28T06:35:23;92868.91;;;5.72;100.00
64602;BME280;51013;42.630;23.192;2023-02-28T06:37:51;92872.63;;;5.79;100.00
64602;BME280;51013;42.630;23.192;2023-02-28T06:40:20;92871.13;;;5.65;100.00
64602;BME280;51013;42.630;23.192;2023-02-28T06:42:46;92878.16;;;5.78;100.00
64602;BME280;51013;42.630;23.192;2023-02-28T06:45:13;92881.41;;;5.83;100.00
64602;BME280;51013;42.630;23.192;2023-02-28T06:47:41;92873.53;;;5.75;100.00
64602;BME280;51013;42.630;23.192;2023-02-28T06:50:11;92878.00;;;5.60;100.00
64602;BME280;51013;42.630;23.192;2023-02-28T06:52:38;92886.38;;;5.57;100.00
64602;BME280;51013;42.630;23.192;2023-02-28T06:55:06;92886.22;;;5.26;100.00
64602;BME280;51013;42.630;23.192;2023-02-28T06:57:36;92883.22;;;5.33;100.00
64602;BME280;51013;42.630;23.192;2023-02-28T07:00:06;92883.13;;;5.24;100.00
64602;BME280;51013;42.630;23.192;2023-02-28T07:02:33;92879.63;;;5.42;100.00
64602;BME280;51013;42.630;23.192;2023-02-28T07:05:00;92884.38;;;5.54;100.00
64602;BME280;51013;42.630;23.192;2023-02-28T07:07:27;92845.28;;;5.27;100.00
64602;BME280;51013;42.630;23.192;2023-02-28T07:09:54;92869.97;;;5.43;100.00
64602;BME280;51013;42.630;23.192;2023-02-28T07:12:22;92897.19;;;5.65;100.00
64602;BME280;51013;42.630;23.192;2023-02-28T07:14:50;92893.50;;;5.66;100.00
64602;BME280;51013;42.630;23.192;2023-02-28T07:17:19;92897.09;;;5.70;100.00
64602;BME280;51013;42.630;23.192;2023-02-28T07:19:46;92897.53;;;5.86;100.00
64602;BME280;51013;42.630;23.192;2023-02-28T07:22:13;92899.28;;;5.90;100.00
64602;BME280;51013;42.630;23.192;2023-02-28T07:24:39;92898.63;;;5.98;100.00
64602;BME280;51013;42.630;23.192;2023-02-28T07:27:06;92896.66;;;6.04;100.00
64602;BME280;51013;42.630;23.192;2023-02-28T07:29:33;92897.16;;;5.92;100.00
64602;BME280;51013;42.630;23.192;2023-02-28T07:32:01;92896.31;;;5.97;100.00
64602;BME280;51013;42.630;23.192;2023-02-28T07:34:28;92892.03;;;6.01;100.00
64602;BME280;51013;42.630;23.192;2023-02-28T07:36:55;92893.56;;;6.02;100.00
64602;BME280;51013;42.630;23.192;2023-02-28T07:39:23;92897.72;;;6.03;100.00
64602;BME280;51013;42.630;23.192;2023-02-28T07:41:49;92903.25;;;6.01;100.00
64602;BME280;51013;42.630;23.192;2023-02-28T07:44:16;92903.00;;;6.12;100.00
64602;BME280;51013;42.630;23.192;2023-02-28T07:46:43;92904.75;;;6.16;100.00
64602;BME280;51013;42.630;23.192;2023-02-28T07:49:11;92900.84;;;6.28;100.00
64602;BME280;51013;42.630;23.192;2023-02-28T07:51:37;92893.91;;;6.23;100.00
64602;BME280;51013;42.630;23.192;2023-02-28T07:54:04;92897.06;;;6.34;100.00
64602;BME280;51013;42.630;23.192;2023-02-28T07:56:31;92903.63;;;6.31;100.00
64602;BME280;51013;42.630;23.192;2023-02-28T07:58:59;92893.88;;;6.37;100.00
64602;BME280;51013;42.630;23.192;2023-02-28T08:01:27;92893.72;;;6.42;100.00
64602;BME280;51013;42.630;23.192;2023-02-28T08:03:55;92887.22;;;6.53;100.00
64602;BME280;51013;42.630;23.192;2023-02-28T08:06:24;92894.56;;;6.51;100.00
64602;BME280;51013;42.630;23.192;2023-02-28T08:08:52;92893.22;;;6.54;100.00
64602;BME280;51013;42.630;23.192;2023-02-28T08:11:21;92893.25;;;6.62;100.00
64602;BME280;51013;42.630;23.192;2023-02-28T08:13:48;92896.53;;;6.68;100.00
64602;BME280;51013;42.630;23.192;2023-02-28T08:16:15;92903.78;;;6.71;100.00
64602;BME280;51013;42.630;23.192;2023-02-28T08:18:46;92909.00;;;6.71;100.00
64602;BME280;51013;42.630;23.192;2023-02-28T08:21:12;92905.31;;;6.72;100.00
64602;BME280;51013;42.630;23.192;2023-02-28T08:23:40;92908.44;;;6.83;100.00
64602;BME280;51013;42.630;23.192;2023-02-28T08:26:07;92899.25;;;6.86;100.00
64602;BME280;51013;42.630;23.192;2023-02-28T08:28:34;92907.16;;;7.03;100.00
64602;BME280;51013;42.630;23.192;2023-02-28T08:31:07;92893.91;;;6.99;100.00
64602;BME280;51013;42.630;23.192;2023-02-28T08:33:34;92889.78;;;6.98;100.00
64602;BME280;51013;42.630;23.192;2023-02-28T08:36:00;92906.78;;;7.18;100.00
64602;BME280;51013;42.630;23.192;2023-02-28T08:38:27;92899.72;;;7.28;100.00
64602;BME280;51013;42.630;23.192;2023-02-28T08:41:04;92909.72;;;7.26;99.94
64602;BME280;51013;42.630;23.192;2023-02-28T08:43:32;92910.66;;;7.30;99.64
64602;BME280;51013;42.630;23.192;2023-02-28T08:46:03;92909.16;;;7.37;100.00
64602;BME280;51013;42.630;23.192;2023-02-28T08:48:32;92907.66;;;7.54;100.00
64602;BME280;51013;42.630;23.192;2023-02-28T08:51:02;92889.38;;;7.54;99.68
64602;BME280;51013;42.630;23.192;2023-02-28T08:53:33;92903.25;;;7.63;99.88
64602;BME280;51013;42.630;23.192;2023-02-28T08:56:05;92906.63;;;7.63;99.32
64602;BME280;51013;42.630;23.192;2023-02-28T08:58:33;92909.88;;;7.69;99.43
64602;BME280;51013;42.630;23.192;2023-02-28T09:01:08;92903.56;;;7.70;99.62
64602;BME280;51013;42.630;23.192;2023-02-28T09:03:35;92901.75;;;7.71;100.00
64602;BME280;51013;42.630;23.192;2023-02-28T09:06:02;92896.97;;;7.81;100.00
64602;BME280;51013;42.630;23.192;2023-02-28T09:08:32;92902.34;;;7.76;100.00
64602;BME280;51013;42.630;23.192;2023-02-28T09:10:58;92896.66;;;7.74;100.00
64602;BME280;51013;42.630;23.192;2023-02-28T09:13:29;92897.56;;;7.70;100.00
64602;BME280;51013;42.630;23.192;2023-02-28T09:15:59;92882.16;;;7.59;100.00
64602;BME280;51013;42.630;23.192;2023-02-28T09:18:28;92888.78;;;7.57;100.00
64602;BME280;51013;42.630;23.192;2023-02-28T09:20:55;92874.59;;;7.49;100.00
64602;BME280;51013;42.630;23.192;2023-02-28T09:23:23;92895.38;;;7.54;100.00
64602;BME280;51013;42.630;23.192;2023-02-28T09:25:51;92893.06;;;7.53;100.00
64602;BME280;51013;42.630;23.192;2023-02-28T09:28:18;92889.81;;;7.47;100.00
64602;BME280;51013;42.630;23.192;2023-02-28T09:30:48;92879.97;;;7.44;100.00
64602;BME280;51013;42.630;23.192;2023-02-28T09:33:16;92899.50;;;7.47;100.00
64602;BME280;51013;42.630;23.192;2023-02-28T09:35:45;92889.66;;;7.43;100.00
64602;BME280;51013;42.630;23.192;2023-02-28T09:38:12;92892.72;;;7.46;100.00
64602;BME280;51013;42.630;23.192;2023-02-28T09:40:45;92890.09;;;7.37;100.00
64602;BME280;51013;42.630;23.192;2023-02-28T09:43:14;92885.94;;;7.36;100.00
64602;BME280;51013;42.630;23.192;2023-02-28T09:45:46;92887.13;;;7.30;100.00
64602;BME280;51013;42.630;23.192;2023-02-28T09:48:20;92884.22;;;7.31;100.00
64602;BME280;51013;42.630;23.192;2023-02-28T09:50:52;92880.88;;;7.39;100.00
64602;BME280;51013;42.630;23.192;2023-02-28T09:53:22;92880.75;;;7.45;100.00
64602;BME280;51013;42.630;23.192;2023-02-28T09:55:54;92883.78;;;7.38;100.00
64602;BME280;51013;42.630;23.192;2023-02-28T09:58:26;92886.00;;;7.53;100.00
64602;BME280;51013;42.630;23.192;2023-02-28T10:01:00;92859.31;;;7.25;100.00
64602;BME280;51013;42.630;23.192;2023-02-28T10:03:36;92874.31;;;7.51;100.00
64602;BME280;51013;42.630;23.192;2023-02-28T10:06:10;92882.31;;;7.54;100.00
64602;BME280;51013;42.630;23.192;2023-02-28T10:08:41;92876.16;;;7.50;100.00
64602;BME280;51013;42.630;23.192;2023-02-28T10:11:12;92866.00;;;7.66;100.00
64602;BME280;51013;42.630;23.192;2023-02-28T10:13:50;92871.38;;;7.52;100.00
64602;BME280;51013;42.630;23.192;2023-02-28T10:16:22;92863.38;;;7.57;100.00
64602;BME280;51013;42.630;23.192;2023-02-28T10:18:57;92859.44;;;7.77;100.00
64602;BME280;51013;42.630;23.192;2023-02-28T10:21:28;92859.91;;;7.79;100.00
64602;BME280;51013;42.630;23.192;2023-02-28T10:24:02;92859.91;;;7.71;100.00
64602;BME280;51013;42.630;23.192;2023-02-28T10:26:32;92854.50;;;7.76;100.00
64602;BME280;51013;42.630;23.192;2023-02-28T10:29:01;92852.22;;;7.92;100.00
64602;BME280;51013;42.630;23.192;2023-02-28T10:31:28;92860.38;;;7.90;100.00
64602;BME280;51013;42.630;23.192;2023-02-28T10:33:56;92847.13;;;7.87;100.00
64602;BME280;51013;42.630;23.192;2023-02-28T10:36:23;92844.38;;;8.00;100.00
64602;BME280;51013;42.630;23.192;2023-02-28T10:38:50;92840.06;;;8.13;100.00
64602;BME280;51013;42.630;23.192;2023-02-28T10:41:27;92836.50;;;8.27;100.00
64602;BME280;51013;42.630;23.192;2023-02-28T10:44:13;92838.06;;;8.28;100.00
64602;BME280;51013;42.630;23.192;2023-02-28T10:46:41;92822.66;;;8.35;100.00
64602;BME280;51013;42.630;23.192;2023-02-28T10:49:15;92830.66;;;8.47;100.00
64602;BME280;51013;42.630;23.192;2023-02-28T10:51:44;92822.63;;;8.61;100.00
64602;BME280;51013;42.630;23.192;2023-02-28T10:54:15;92797.69;;;8.55;100.00
64602;BME280;51013;42.630;23.192;2023-02-28T10:56:43;92818.63;;;8.72;100.00
64602;BME280;51013;42.630;23.192;2023-02-28T10:59:27;92805.06;;;8.61;100.00
64602;BME280;51013;42.630;23.192;2023-02-28T11:01:55;92812.09;;;8.87;100.00
64602;BME280;51013;42.630;23.192;2023-02-28T11:04:35;92785.19;;;8.69;100.00
64602;BME280;51013;42.630;23.192;2023-02-28T11:07:18;92802.34;;;8.96;100.00
64602;BME280;51013;42.630;23.192;2023-02-28T11:09:48;92798.13;;;9.04;100.00
64602;BME280;51013;42.630;23.192;2023-02-28T11:12:23;92799.97;;;9.12;100.00
64602;BME280;51013;42.630;23.192;2023-02-28T11:14:55;92804.97;;;9.26;100.00
64602;BME280;51013;42.630;23.192;2023-02-28T11:17:25;92796.06;;;9.27;100.00
64602;BME280;51013;42.630;23.192;2023-02-28T11:19:56;92791.03;;;9.43;99.92
64602;BME280;51013;42.630;23.192;2023-02-28T11:22:25;92790.53;;;9.50;98.20
64602;BME280;51013;42.630;23.192;2023-02-28T11:24:55;92786.09;;;9.62;96.85
64602;BME280;51013;42.630;23.192;2023-02-28T11:27:43;92790.72;;;9.66;97.72
64602;BME280;51013;42.630;23.192;2023-02-28T11:30:31;92786.44;;;9.82;98.06
64602;BME280;51013;42.630;23.192;2023-02-28T11:32:59;92788.59;;;10.01;95.63
64602;BME280;51013;42.630;23.192;2023-02-28T11:35:31;92782.56;;;10.21;95.01
64602;BME280;51013;42.630;23.192;2023-02-28T11:38:00;92783.91;;;10.49;93.92
64602;BME280;51013;42.630;23.192;2023-02-28T11:40:41;92782.19;;;10.65;90.28
64602;BME280;51013;42.630;23.192;2023-02-28T11:43:23;92766.63;;;10.72;90.87
64602;BME280;51013;42.630;23.192;2023-02-28T11:46:14;92778.94;;;10.93;90.55
64602;BME280;51013;42.630;23.192;2023-02-28T11:48:52;92772.84;;;11.13;88.39
64602;BME280;51013;42.630;23.192;2023-02-28T11:51:27;92772.41;;;11.11;86.31
64602;BME280;51013;42.630;23.192;2023-02-28T11:54:13;92766.13;;;11.16;85.98
64602;BME280;51013;42.630;23.192;2023-02-28T11:56:44;92761.63;;;11.29;86.20
64602;BME280;51013;42.630;23.192;2023-02-28T11:59:34;92758.56;;;11.39;85.94
64602;BME280;51013;42.630;23.192;2023-02-28T12:02:06;92761.75;;;11.32;85.63
64602;BME280;51013;42.630;23.192;2023-02-28T12:04:51;92763.19;;;11.17;85.20
64602;BME280;51013;42.630;23.192;2023-02-28T12:07:28;92761.53;;;11.25;84.98
64602;BME280;51013;42.630;23.192;2023-02-28T12:10:05;92758.69;;;11.30;85.89
64602;BME280;51013;42.630;23.192;2023-02-28T12:12:43;92729.00;;;11.05;85.09
64602;BME280;51013;42.630;23.192;2023-02-28T12:15:27;92759.75;;;11.29;84.99
64602;BME280;51013;42.630;23.192;2023-02-28T12:18:13;92764.16;;;11.25;84.90
64602;BME280;51013;42.630;23.192;2023-02-28T12:20:48;92749.69;;;11.31;84.39
64602;BME280;51013;42.630;23.192;2023-02-28T12:23:47;92754.38;;;11.50;85.52
64602;BME280;51013;42.630;23.192;2023-02-28T12:26:24;92752.44;;;11.35;83.49
64602;BME280;51013;42.630;23.192;2023-02-28T12:29:02;92747.81;;;11.44;83.66
64602;BME280;51013;42.630;23.192;2023-02-28T12:31:34;92748.03;;;11.51;82.39
64602;BME280;51013;42.630;23.192;2023-02-28T12:34:07;92748.84;;;11.68;81.21
64602;BME280;51013;42.630;23.192;2023-02-28T12:36:39;92747.78;;;11.69;79.18
64602;BME280;51013;42.630;23.192;2023-02-28T12:39:13;92758.19;;;11.65;81.02
64602;BME280;51013;42.630;23.192;2023-02-28T12:41:45;92751.78;;;11.38;80.60
64602;BME280;51013;42.630;23.192;2023-02-28T12:44:17;92735.03;;;11.18;81.17
64602;BME280;51013;42.630;23.192;2023-02-28T12:46:48;92737.78;;;11.21;81.27
64602;BME280;51013;42.630;23.192;2023-02-28T12:49:17;92728.78;;;11.22;81.61
64602;BME280;51013;42.630;23.192;2023-02-28T12:51:45;92709.50;;;11.18;81.18
64602;BME280;51013;42.630;23.192;2023-02-28T12:54:20;92733.72;;;11.24;81.63
64602;BME280;51013;42.630;23.192;2023-02-28T12:56:55;92717.94;;;11.24;80.77
64602;BME280;51013;42.630;23.192;2023-02-28T12:59:27;92720.88;;;11.22;82.02
64602;BME280;51013;42.630;23.192;2023-02-28T13:02:09;92721.19;;;11.21;81.23
64602;BME280;51013;42.630;23.192;2023-02-28T13:04:57;92720.13;;;11.22;80.45
64602;BME280;51013;42.630;23.192;2023-02-28T13:07:49;92723.97;;;11.12;80.29
64602;BME280;51013;42.630;23.192;2023-02-28T13:10:22;92724.72;;;11.00;81.46
64602;BME280;51013;42.630;23.192;2023-02-28T13:12:51;92718.81;;;10.91;82.21
64602;BME280;51013;42.630;23.192;2023-02-28T13:15:22;92714.75;;;10.94;82.16